Time;durP1;ratioP1;P1;durP2;ratioP2;P2;SDS_P1;SDS_P2;PMS_P1;PMS_P2;Temp;Humidity;BMP_temperature;BMP_pressure;BME280_temperature;BME280_humidity;BME280_pressure;Samples;Min_cycle;Max_cycle;Signal;HPM_P1;HPM_P2
2022/04/12 00:00:21;;;;;;;2.30;1.70;;;;;;;4.87;84.20;97924.43;25105;1315;3028768;-63
2022/04/12 00:02:50;;;;;;;2.30;1.50;;;;;;;5.16;83.48;97940.65;25136;1316;3058104;-67
2022/04/12 00:05:19;;;;;;;2.70;1.90;;;;;;;5.41;82.15;97932.01;25120;1315;3028135;-65
2022/04/12 00:07:49;;;;;;;4.10;1.70;;;;;;;5.40;81.85;97966.25;25157;1315;3054298;-66
2022/04/12 00:10:21;;;;;;;3.70;2.30;;;;;;;5.18;82.50;97973.02;25106;1316;3026663;-66
2022/04/12 00:12:51;;;;;;;3.10;2.10;;;;;;;5.07;83.10;97987.77;25098;1316;3026216;-64
2022/04/12 00:15:20;;;;;;;2.60;2.00;;;;;;;5.36;82.59;97984.38;25132;1316;3026129;-65
2022/04/12 00:20:37;;;;;;;4.00;2.50;;;;;;;5.36;81.66;97950.88;25064;1315;3052264;-64
2022/04/12 00:23:06;;;;;;;4.00;1.70;;;;;;;4.89;83.19;97898.95;25155;1316;3026891;-66
2022/04/12 00:25:37;;;;;;;3.40;2.20;;;;;;;4.70;84.65;97862.98;25096;1316;3057612;-64
2022/04/12 00:28:07;;;;;;;3.50;1.90;;;;;;;5.06;84.31;97906.59;25106;1316;3028490;-64
2022/04/12 00:30:37;;;;;;;5.40;2.00;;;;;;;5.16;83.21;97930.08;25136;1315;3026312;-64
2022/04/12 00:33:07;;;;;;;3.30;2.20;;;;;;;5.17;82.80;97929.36;25089;1316;3027537;-63
2022/04/12 00:35:37;;;;;;;1.70;1.40;;;;;;;4.84;83.74;97947.29;25046;1316;3026496;-65
2022/04/12 00:38:17;;;;;;;2.40;1.60;;;;;;;4.70;84.25;97950.76;25112;1316;3053984;-65
2022/04/12 00:40:47;;;;;;;2.90;1.70;;;;;;;5.03;83.63;97924.48;25082;1316;3053856;-64
2022/04/12 00:43:18;;;;;;;2.00;1.30;;;;;;;5.14;82.71;97915.98;25114;1316;3029299;-65
2022/04/12 00:45:47;;;;;;;2.10;1.50;;;;;;;5.03;82.95;97901.56;25161;1316;3027339;-64
2022/04/12 00:48:17;;;;;;;3.50;2.10;;;;;;;4.73;83.72;97905.63;25131;1316;3026389;-65
2022/04/12 00:50:46;;;;;;;5.50;2.00;;;;;;;4.63;84.84;97909.91;25094;1315;3070917;-65
2022/04/12 00:53:15;;;;;;;3.20;2.00;;;;;;;5.18;83.38;97927.83;25158;1316;3026540;-67
2022/04/12 00:55:45;;;;;;;4.40;2.10;;;;;;;5.30;82.16;97941.50;25073;1318;3030187;-65
2022/04/12 00:58:14;;;;;;;3.60;2.10;;;;;;;5.06;82.47;97936.40;25099;1316;3070223;-66
2022/04/12 01:00:43;;;;;;;3.60;2.30;;;;;;;4.86;83.19;97938.19;25166;1314;3026515;-64
2022/04/12 01:03:13;;;;;;;4.20;1.80;;;;;;;4.71;84.13;97940.48;25144;1316;3054557;-64
2022/04/12 01:05:42;;;;;;;5.90;2.00;;;;;;;5.04;83.32;97932.03;25130;1316;3026936;-67
2022/04/12 01:08:12;;;;;;;4.30;2.00;;;;;;;5.20;82.19;97916.81;25135;1315;3026787;-66
2022/04/12 01:11:07;;;;;;;3.30;2.30;;;;;;;5.05;82.54;97911.66;25122;1315;3052512;-64
2022/04/12 01:13:36;;;;;;;3.40;2.20;;;;;;;4.84;83.29;97904.30;25116;1316;3053600;-64
2022/04/12 01:16:07;;;;;;;3.40;1.90;;;;;;;4.81;83.55;97908.10;25149;1314;3028550;-65
2022/04/12 01:18:37;;;;;;;3.00;2.10;;;;;;;5.22;82.49;97919.47;25142;1316;3052287;-66
2022/04/12 01:21:32;;;;;;;3.10;2.00;;;;;;;5.36;81.32;97917.38;25107;1316;3052573;-64
2022/04/12 01:24:02;;;;;;;4.30;2.40;;;;;;;5.22;81.67;97912.73;25094;1316;3056020;-67
2022/04/12 01:26:32;;;;;;;4.90;3.20;;;;;;;5.12;82.10;97908.66;25141;1315;3026541;-64
2022/04/12 01:29:01;;;;;;;2.90;1.70;;;;;;;5.01;82.64;97913.98;25142;1315;3028956;-65
2022/04/12 01:31:31;;;;;;;3.00;2.20;;;;;;;5.41;81.43;97925.91;25113;1316;3027135;-66
2022/04/12 01:34:00;;;;;;;3.00;1.70;;;;;;;5.60;80.30;97915.83;25175;1316;3026300;-66
2022/04/12 01:36:29;;;;;;;4.10;2.30;;;;;;;5.57;79.85;97930.25;25072;1316;3055437;-64
2022/04/12 01:38:59;;;;;;;2.10;1.60;;;;;;;5.29;80.71;97928.55;25102;1316;3026412;-62
2022/04/12 01:41:29;;;;;;;3.00;1.80;;;;;;;4.92;81.73;97930.52;25090;1315;3026887;-64
2022/04/12 01:43:58;;;;;;;3.10;2.00;;;;;;;4.77;82.85;97921.38;25151;1316;3026675;-66
2022/04/12 01:46:27;;;;;;;3.10;1.70;;;;;;;5.20;81.69;97920.61;25089;1319;3026735;-66
2022/04/12 01:48:56;;;;;;;2.60;1.70;;;;;;;5.15;81.13;97907.92;25051;1316;3070200;-66
2022/04/12 01:51:25;;;;;;;1.90;1.60;;;;;;;5.23;81.16;97922.02;25109;1315;3026801;-64
2022/04/12 01:53:54;;;;;;;2.00;1.70;;;;;;;4.96;81.50;97946.03;25141;1316;3053327;-66
2022/04/12 01:56:25;;;;;;;3.20;1.60;;;;;;;4.79;82.35;97938.05;25085;1315;3026649;-66
2022/04/12 01:58:56;;;;;;;3.80;1.90;;;;;;;5.22;81.26;97926.19;25125;1316;3026389;-64
2022/04/12 02:01:25;;;;;;;3.50;1.70;;;;;;;5.26;80.31;97920.80;25107;1316;3027322;-64
2022/04/12 02:03:54;;;;;;;3.60;1.70;;;;;;;5.12;80.82;97916.63;25151;1316;3026409;-68
2022/04/12 02:06:23;;;;;;;2.70;2.00;;;;;;;5.00;81.16;97913.72;25093;1315;3051946;-64
2022/04/12 02:08:53;;;;;;;2.40;1.40;;;;;;;4.91;81.89;97916.69;25144;1316;3026705;-66
2022/04/12 02:11:22;;;;;;;1.80;1.40;;;;;;;5.28;80.89;97918.89;25192;1316;3026439;-66
2022/04/12 02:13:51;;;;;;;2.10;1.30;;;;;;;5.66;79.27;97920.63;25117;1316;3048477;-65
2022/04/12 02:16:18;;;;;;;2.10;1.30;;;;;;;5.34;79.68;97917.61;22436;1316;13407551;-67
2022/04/12 02:18:50;;;;;;;3.20;1.70;;;;;;;5.15;80.29;97910.67;25134;1316;3028056;-66
2022/04/12 02:21:38;;;;;;;1.80;1.30;;;;;;;4.99;81.18;97899.02;25056;1318;3053025;-66
2022/04/12 02:24:09;;;;;;;3.30;1.70;;;;;;;5.25;80.99;97894.08;25113;1316;3027202;-65
2022/04/12 02:26:38;;;;;;;1.90;1.30;;;;;;;5.32;80.49;97872.11;25149;1315;3026582;-65
2022/04/12 02:29:07;;;;;;;3.10;1.40;;;;;;;5.18;80.20;97872.48;25114;1316;3055094;-66
2022/04/12 02:31:37;;;;;;;1.60;1.10;;;;;;;4.82;81.54;97875.42;25125;1319;3028217;-64
2022/04/12 02:34:06;;;;;;;2.20;1.10;;;;;;;4.71;82.21;97884.98;25042;1316;3026686;-65
2022/04/12 02:36:36;;;;;;;1.60;1.00;;;;;;;5.09;81.61;97891.44;25173;1315;3055572;-65
2022/04/12 02:39:05;;;;;;;1.40;1.10;;;;;;;5.35;80.07;97889.13;25205;1316;3026096;-62
2022/04/12 02:41:36;;;;;;;1.30;0.80;;;;;;;5.03;80.73;97907.65;25529;1316;3050098;-63
2022/04/12 02:44:05;;;;;;;3.40;1.10;;;;;;;4.91;81.45;97892.96;25502;1316;3026808;-63
2022/04/12 02:46:37;;;;;;;2.50;1.20;;;;;;;4.68;82.12;97926.09;25423;1317;3026675;-65
2022/04/12 02:49:06;;;;;;;1.90;1.10;;;;;;;4.88;82.24;97948.63;25143;1316;3027179;-67
2022/04/12 02:51:35;;;;;;;1.50;1.10;;;;;;;5.12;81.01;97934.64;25136;1317;3054637;-66
2022/04/12 02:54:04;;;;;;;4.20;2.60;;;;;;;5.13;80.86;97927.12;25114;1316;3028428;-69
2022/04/12 02:56:33;;;;;;;24.70;14.70;;;;;;;4.69;82.52;97916.34;25127;1315;3051871;-72
2022/04/12 02:59:03;;;;;;;11.90;7.40;;;;;;;4.17;85.35;97888.76;25143;1316;3025824;-67
2022/04/12 03:01:34;;;;;;;10.70;4.70;;;;;;;4.22;86.13;97891.02;25135;1317;3059281;-69
2022/04/12 03:04:03;;;;;;;10.60;5.00;;;;;;;4.80;84.23;97897.41;25125;1316;3028001;-66
2022/04/12 03:06:33;;;;;;;10.60;5.20;;;;;;;4.67;82.87;97897.14;25145;1316;3026530;-67
2022/04/12 03:09:22;;;;;;;3.70;1.90;;;;;;;4.50;83.01;97905.35;25170;1317;3051604;-70
2022/04/12 03:11:51;;;;;;;2.80;1.40;;;;;;;4.21;83.99;97913.80;25143;1315;3026734;-67
2022/04/12 03:14:40;;;;;;;1.50;0.80;;;;;;;4.12;84.19;97929.23;25155;1316;3049398;-69
2022/04/12 03:17:09;;;;;;;3.60;0.80;;;;;;;4.51;82.73;97928.36;25104;1316;3026156;-66
2022/04/12 03:19:58;;;;;;;12.60;5.20;;;;;;;4.63;81.34;97934.02;25109;1315;3071128;-68
2022/04/12 03:22:27;;;;;;;10.70;5.10;;;;;;;4.32;81.65;97912.97;25082;1316;3028070;-69
2022/04/12 03:24:57;;;;;;;21.90;11.20;;;;;;;4.07;82.49;97925.55;25135;1316;3054375;-69
2022/04/12 03:27:28;;;;;;;10.00;4.50;;;;;;;3.95;83.11;97933.34;25108;1316;3026791;-68
2022/04/12 03:29:57;;;;;;;7.60;3.40;;;;;;;4.31;81.82;97924.14;25090;1315;3026511;-67
2022/04/12 03:32:26;;;;;;;6.70;4.10;;;;;;;4.25;81.10;97932.13;25147;1315;3026755;-67
2022/04/12 03:34:55;;;;;;;9.60;4.70;;;;;;;4.03;81.99;97920.91;25137;1318;3067006;-69
2022/04/12 03:37:24;;;;;;;9.40;4.30;;;;;;;3.86;82.70;97926.80;25120;1314;3026874;-72
2022/04/12 03:39:55;;;;;;;5.20;2.40;;;;;;;3.80;82.69;97937.34;25128;1316;3053526;-67
2022/04/12 03:42:40;;;;;;;5.30;1.90;;;;;;;4.06;81.23;97923.20;25153;1316;3071538;-69
2022/04/12 03:45:10;;;;;;;4.60;2.20;;;;;;;4.03;81.36;97926.16;25187;1316;3025866;-69
2022/04/12 03:47:39;;;;;;;4.50;2.20;;;;;;;4.00;80.88;97921.08;25108;1316;3051099;-70
2022/04/12 03:50:09;;;;;;;6.40;2.20;;;;;;;3.69;81.64;97924.98;25135;1319;3028386;-68
2022/04/12 03:52:39;;;;;;;7.10;3.10;;;;;;;3.48;82.29;97927.02;25161;1316;3052612;-67
2022/04/12 03:55:10;;;;;;;11.60;4.10;;;;;;;3.87;81.85;97917.18;25184;1316;3026333;-68
2022/04/12 03:57:41;;;;;;;10.60;4.00;;;;;;;4.11;80.42;97943.68;25118;1319;3050973;-68
2022/04/12 04:00:29;;;;;;;8.50;3.40;;;;;;;4.00;80.33;97932.20;25109;1315;3053728;-70
2022/04/12 04:02:58;;;;;;;8.20;2.50;;;;;;;3.76;80.72;97930.61;25130;1316;3026691;-70
2022/04/12 04:05:27;;;;;;;5.30;2.50;;;;;;;3.53;81.77;97917.21;25167;1316;3047721;-73
2022/04/12 04:07:57;;;;;;;5.70;1.60;;;;;;;3.63;82.05;97924.29;25081;1318;3026326;-71
2022/04/12 04:10:26;;;;;;;6.10;1.60;;;;;;;3.84;80.52;97924.98;25156;1316;3058392;-68
2022/04/12 04:12:56;;;;;;;1.40;1.10;;;;;;;3.79;80.69;97917.30;25140;1316;3026421;-71
2022/04/12 04:15:25;;;;;;;2.50;0.70;;;;;;;3.49;81.42;97931.81;25129;1318;3026755;-72
2022/04/12 04:17:55;;;;;;;0.50;0.50;;;;;;;3.36;81.95;97916.77;25127;1316;3058528;-69
2022/04/12 04:20:24;;;;;;;0.30;0.30;;;;;;;3.16;82.55;97915.60;25133;1315;3027421;-71
2022/04/12 04:22:53;;;;;;;0.50;0.30;;;;;;;3.62;81.96;97904.43;25119;1316;3052092;-72
2022/04/12 04:25:42;;;;;;;0.90;0.40;;;;;;;3.77;80.88;97910.82;25130;1316;3055726;-69
2022/04/12 04:28:21;;;;;;;1.60;1.00;;;;;;;3.40;82.07;97906.66;25116;1316;3050668;-67
2022/04/12 04:30:50;;;;;;;2.30;0.90;;;;;;;3.29;82.40;97898.48;25144;1316;3026344;-70
2022/04/12 04:33:21;;;;;;;6.80;2.30;;;;;;;3.25;82.86;97918.42;25157;1316;3058632;-67
2022/04/12 04:35:53;;;;;;;8.80;3.40;;;;;;;3.63;81.67;97899.14;25157;1315;3026758;-69
2022/04/12 04:38:22;;;;;;;5.90;3.00;;;;;;;3.78;80.51;97902.46;25162;1316;3027160;-71
2022/04/12 04:40:51;;;;;;;9.60;4.20;;;;;;;3.47;81.31;97901.28;25117;1316;3056398;-68
2022/04/12 04:43:20;;;;;;;7.50;3.30;;;;;;;3.29;82.03;97885.33;25162;1316;3027082;-67
2022/04/12 04:45:49;;;;;;;3.90;1.60;;;;;;;3.18;82.35;97901.66;25114;1316;3050794;-67
2022/04/12 04:48:18;;;;;;;3.40;1.20;;;;;;;3.65;81.51;97882.05;25142;1316;3027211;-71
2022/04/12 04:50:48;;;;;;;1.60;1.10;;;;;;;4.00;79.74;97886.83;25176;1316;3052705;-72
2022/04/12 04:53:18;;;;;;;3.30;1.10;;;;;;;3.86;79.50;97897.83;25162;1315;3026483;-72
2022/04/12 04:55:47;;;;;;;0.50;0.50;;;;;;;3.59;79.99;97897.33;25145;1316;3027491;-68
2022/04/12 04:58:17;;;;;;;1.40;0.70;;;;;;;3.32;80.62;97915.63;25126;1316;3054476;-70
2022/04/12 05:00:49;;;;;;;2.30;0.70;;;;;;;3.46;81.28;97910.51;25154;1316;3028643;-71
2022/04/12 05:03:18;;;;;;;2.10;1.00;;;;;;;3.85;79.53;97904.27;25205;1316;3028973;-71
2022/04/12 05:05:49;;;;;;;3.40;1.40;;;;;;;3.75;79.36;97898.46;25154;1319;3054344;-69
2022/04/12 05:08:19;;;;;;;2.40;1.10;;;;;;;3.65;79.70;97885.86;25147;1315;3029799;-68
2022/04/12 05:11:07;;;;;;;1.70;0.70;;;;;;;3.31;81.16;97892.15;25130;1316;3058846;-67
2022/04/12 05:13:38;;;;;;;1.30;0.60;;;;;;;3.23;81.79;97895.72;25174;1316;3026381;-70
2022/04/12 05:16:27;;;;;;;1.80;0.70;;;;;;;3.62;80.65;97882.59;25106;1316;3053247;-69
2022/04/12 05:18:56;;;;;;;2.70;1.20;;;;;;;3.65;79.66;97900.22;25132;1316;3027011;-71
2022/04/12 05:21:45;;;;;;;4.40;1.70;;;;;;;3.36;81.05;97904.98;25111;1315;3051644;-71
2022/04/12 05:24:14;;;;;;;2.80;1.20;;;;;;;3.36;81.37;97880.58;25191;1315;3026342;-68
2022/04/12 05:26:42;;;;;;;3.00;1.00;;;;;;;3.16;82.33;97891.25;25105;1316;3056728;-70
2022/04/12 05:29:12;;;;;;;2.40;1.10;;;;;;;3.74;81.08;97897.45;25147;1315;3026511;-70
2022/04/12 05:31:41;;;;;;;2.50;1.50;;;;;;;3.93;80.27;97893.10;25124;1318;3027507;-70
2022/04/12 05:34:11;;;;;;;1.60;0.90;;;;;;;3.55;80.70;97913.30;25097;1316;3026429;-67
2022/04/12 05:36:40;;;;;;;1.90;1.00;;;;;;;3.43;81.25;97905.48;25147;1315;3028028;-69
2022/04/12 05:39:09;;;;;;;3.10;0.90;;;;;;;3.10;82.57;97914.23;25127;1316;3027573;-71
2022/04/12 05:41:38;;;;;;;1.30;0.70;;;;;;;3.13;83.62;97925.48;25130;1316;3050800;-71
2022/04/12 05:44:08;;;;;;;2.60;0.70;;;;;;;3.61;82.21;97925.45;25152;1316;3028621;-68
2022/04/12 05:46:37;;;;;;;8.00;3.80;;;;;;;3.66;81.49;97927.76;25112;1315;3055456;-70
2022/04/12 05:49:05;;;;;;;10.20;4.70;;;;;;;3.61;81.32;97927.14;25136;1316;3026570;-69
2022/04/12 05:51:37;;;;;;;9.90;4.20;;;;;;;3.27;86.11;97949.96;25117;1316;3050747;-68
2022/04/12 05:54:06;;;;;;;5.60;2.70;;;;;;;3.05;84.16;97943.05;25199;1316;3026720;-69
2022/04/12 05:56:35;;;;;;;4.80;1.90;;;;;;;3.22;83.21;97939.55;25136;1316;3026596;-71
2022/04/12 05:59:06;;;;;;;2.30;1.60;;;;;;;3.61;82.01;97926.60;25172;1316;3051688;-71
2022/04/12 06:01:35;;;;;;;3.40;1.60;;;;;;;3.35;81.85;97953.55;25125;1314;3026191;-68
2022/04/12 06:04:07;;;;;;;2.40;1.30;;;;;;;3.14;82.89;97950.52;25182;1316;3027153;-68
2022/04/12 06:06:54;;;;;;;1.00;0.80;;;;;;;3.11;83.63;97953.59;25205;1316;3052064;-72
2022/04/12 06:09:23;;;;;;;2.90;0.90;;;;;;;3.56;82.14;97944.05;25143;1316;3026461;-72
2022/04/12 06:12:06;;;;;;;1.50;1.10;;;;;;;3.73;81.01;97943.42;25151;1316;3053836;-67
2022/04/12 06:14:35;;;;;;;6.10;2.50;;;;;;;3.53;81.04;97936.05;25130;1316;3028178;-71
2022/04/12 06:17:34;;;;;;;9.70;6.20;;;;;;;3.23;81.65;97944.48;25152;1316;3049230;-70
2022/04/12 06:20:06;;;;;;;6.00;3.20;;;;;;;3.01;82.79;97956.05;25146;1316;3053063;-73
2022/04/12 06:22:36;;;;;;;6.10;2.40;;;;;;;3.00;83.48;97969.92;25177;1316;3026505;-72
2022/04/12 06:25:06;;;;;;;3.50;2.00;;;;;;;3.45;81.79;97959.20;25149;1316;3026448;-66
2022/04/12 06:27:39;;;;;;;2.90;1.50;;;;;;;3.38;81.25;97971.14;25111;1315;3027172;-73
2022/04/12 06:30:13;;;;;;;1.40;0.80;;;;;;;3.17;81.66;97978.58;25152;1316;3026367;-75
2022/04/12 06:33:01;;;;;;;1.30;0.70;;;;;;;3.04;81.90;97971.33;25140;1316;3051606;-71
2022/04/12 06:35:31;;;;;;;0.90;0.60;;;;;;;2.91;82.53;97970.23;25119;1316;3029911;-72
2022/04/12 06:38:03;;;;;;;0.60;0.50;;;;;;;3.29;81.26;97975.34;25138;1314;3026336;-70
2022/04/12 06:40:34;;;;;;;1.30;0.80;;;;;;;3.49;80.50;97979.21;25152;1316;3027256;-74
2022/04/12 06:43:04;;;;;;;2.70;0.90;;;;;;;3.28;80.51;97991.79;25170;1316;3026452;-72
2022/04/12 06:45:44;;;;;;;4.10;1.50;;;;;;;3.08;81.49;97984.05;25140;1316;3058844;-74
2022/04/12 06:48:14;;;;;;;1.60;0.90;;;;;;;3.08;81.28;98003.79;25174;1316;3026515;-73
2022/04/12 06:50:44;;;;;;;0.90;0.60;;;;;;;3.20;81.24;97997.10;25180;1316;3050910;-71
2022/04/12 06:53:13;;;;;;;2.10;0.60;;;;;;;3.44;79.73;98013.08;25201;1316;3026594;-74
2022/04/12 06:55:43;;;;;;;0.90;0.50;;;;;;;3.42;79.52;98007.66;25174;1316;3055040;-75
2022/04/12 06:58:14;;;;;;;1.70;0.80;;;;;;;3.24;79.95;98015.20;25185;1316;3026074;-76
2022/04/12 07:00:44;;;;;;;1.60;0.90;;;;;;;3.12;80.48;98013.44;25178;1316;3026747;-76
2022/04/12 07:03:15;;;;;;;1.10;0.60;;;;;;;3.03;81.62;98001.99;25199;1316;3054037;-71
2022/04/12 07:05:45;;;;;;;1.90;0.50;;;;;;;3.49;80.09;97991.19;25388;1316;3026403;-73
2022/04/12 07:08:17;;;;;;;1.00;0.50;;;;;;;3.59;79.26;98012.80;25921;1316;3056152;-72
2022/04/12 07:10:51;;;;;;;3.30;1.20;;;;;;;3.34;79.40;98010.70;25837;1315;3049544;-66
2022/04/12 07:13:23;;;;;;;1.80;1.10;;;;;;;3.25;80.44;98002.86;25809;1314;3026268;-70
2022/04/12 07:16:06;;;;;;;1.20;0.80;;;;;;;3.00;81.33;98002.64;25424;1316;3054457;-75
2022/04/12 07:18:35;;;;;;;1.10;0.70;;;;;;;3.24;81.56;98004.14;25258;1316;3026337;-73
2022/04/12 07:21:24;;;;;;;0.60;0.40;;;;;;;3.60;79.19;97991.96;25158;1315;3049277;-76
2022/04/12 07:23:53;;;;;;;2.00;0.80;;;;;;;3.72;79.00;97985.55;25147;1316;3026359;-76
2022/04/12 07:26:23;;;;;;;3.80;1.30;;;;;;;3.54;79.13;97990.77;25148;1316;3028945;-71
2022/04/12 07:28:52;;;;;;;2.00;1.10;;;;;;;3.39;79.59;97999.52;25176;1316;3052660;-72
2022/04/12 07:31:21;;;;;;;0.80;0.70;;;;;;;3.22;79.99;98005.98;25131;1315;3026915;-76
2022/04/12 07:33:51;;;;;;;1.20;0.60;;;;;;;3.22;80.50;98006.16;25109;1316;3071142;-76
2022/04/12 07:36:20;;;;;;;0.80;0.60;;;;;;;3.55;79.25;98016.98;25175;1315;3027708;-76
2022/04/12 07:38:52;;;;;;;1.20;0.80;;;;;;;3.52;79.15;98015.26;25171;1316;3028028;-78
2022/04/12 07:41:21;;;;;;;0.90;0.60;;;;;;;3.29;79.85;98026.35;25193;1316;3068811;-73
2022/04/12 07:43:52;;;;;;;1.60;0.80;;;;;;;3.24;80.33;98038.42;25145;1315;3026592;-72
2022/04/12 07:46:21;;;;;;;2.20;0.80;;;;;;;3.16;80.20;98017.16;25219;1316;3053977;-77
2022/04/12 07:48:50;;;;;;;1.60;0.50;;;;;;;3.43;79.39;98027.16;25159;1315;3027204;-75
2022/04/12 07:51:20;;;;;;;1.00;0.60;;;;;;;3.59;79.07;98020.96;25169;1316;3055293;-75
2022/04/12 07:53:49;;;;;;;1.70;0.90;;;;;;;3.48;79.20;98031.77;25144;1315;3028343;-73
2022/04/12 07:56:18;;;;;;;1.70;0.80;;;;;;;3.30;79.62;98037.38;25153;1316;3052126;-74
2022/04/12 07:58:50;;;;;;;0.90;0.50;;;;;;;3.16;80.60;98044.67;25181;1316;3026428;-76
2022/04/12 08:01:19;;;;;;;1.70;0.80;;;;;;;3.20;80.80;98053.34;25145;1316;3026496;-76
2022/04/12 08:03:48;;;;;;;2.60;1.30;;;;;;;3.66;79.14;98044.95;25162;1314;3026889;-74
2022/04/12 08:06:19;;;;;;;3.50;1.20;;;;;;;3.71;78.69;98062.33;25102;1315;3052627;-78
2022/04/12 08:08:48;;;;;;;2.80;1.30;;;;;;;3.72;78.70;98049.67;25193;1314;3026542;-75
2022/04/12 08:11:17;;;;;;;1.60;0.80;;;;;;;3.47;79.61;98053.79;25167;1315;3026470;-73
2022/04/12 08:13:47;;;;;;;1.50;0.60;;;;;;;3.30;80.20;98059.38;25138;1316;3026159;-77
2022/04/12 08:16:17;;;;;;;1.40;0.90;;;;;;;3.72;79.95;98054.48;25133;1316;3026737;-75
2022/04/12 08:18:50;;;;;;;1.30;0.80;;;;;;;3.95;78.59;98050.61;25153;1316;3027316;-71
2022/04/12 08:21:39;;;;;;;1.10;0.80;;;;;;;3.85;78.16;98063.13;25119;1315;3029195;-73
2022/04/12 08:24:08;;;;;;;1.10;0.60;;;;;;;3.67;79.36;98060.30;25184;1316;3051452;-73
2022/04/12 08:26:41;;;;;;;0.80;0.30;;;;;;;3.43;80.27;98072.34;25125;1316;3052467;-73
2022/04/12 08:29:11;;;;;;;1.20;0.70;;;;;;;3.44;81.02;98072.11;25131;1313;3026386;-71
2022/04/12 08:31:41;;;;;;;1.80;0.90;;;;;;;3.91;79.51;98061.59;25231;1313;3026573;-74
2022/04/12 08:34:10;;;;;;;0.90;0.50;;;;;;;4.21;77.81;98067.17;25280;1313;3051553;-67
2022/04/12 08:36:40;;;;;;;1.90;0.60;;;;;;;4.03;77.99;98077.59;25190;1313;3027231;-71
2022/04/12 08:39:10;;;;;;;1.90;0.70;;;;;;;3.56;79.02;98101.95;25161;1316;3027518;-71
2022/04/12 08:41:39;;;;;;;0.40;0.40;;;;;;;3.39;80.15;98095.41;25200;1316;3027016;-71
2022/04/12 08:44:09;;;;;;;0.70;0.40;;;;;;;3.41;80.38;98092.19;25109;1313;3056349;-77
2022/04/12 08:46:38;;;;;;;2.00;0.70;;;;;;;3.64;80.43;98108.95;25176;1316;3026970;-70
2022/04/12 08:49:07;;;;;;;1.30;0.80;;;;;;;3.97;79.18;98100.94;25098;1313;3051843;-73
2022/04/12 08:51:37;;;;;;;1.00;0.60;;;;;;;4.17;78.59;98103.84;25169;1314;3026861;-73
2022/04/12 08:54:06;;;;;;;2.00;1.20;;;;;;;4.22;77.70;98101.63;25205;1316;3029404;-75
2022/04/12 08:56:36;;;;;;;1.30;0.60;;;;;;;3.78;78.45;98118.23;25180;1315;3055651;-77
2022/04/12 08:59:05;;;;;;;0.90;0.50;;;;;;;3.58;79.84;98109.80;25177;1313;3029880;-74
2022/04/12 09:01:35;;;;;;;1.60;0.80;;;;;;;3.85;80.11;98112.84;25190;1313;3055002;-71
2022/04/12 09:04:04;;;;;;;4.50;1.70;;;;;;;4.27;77.90;98124.41;25183;1313;3026695;-76
2022/04/12 09:06:34;;;;;;;6.70;3.10;;;;;;;4.24;77.27;98098.77;25190;1313;3027135;-74
2022/04/12 09:09:13;;;;;;;4.30;2.00;;;;;;;3.93;78.27;98107.21;25159;1315;3026371;-75
2022/04/12 09:12:02;;;;;;;3.20;1.40;;;;;;;3.80;78.77;98113.16;25157;1313;3053531;-75
2022/04/12 09:14:38;;;;;;;2.50;1.40;;;;;;;3.69;79.03;98115.82;25170;1316;3051185;-75
2022/04/12 09:17:10;;;;;;;1.40;0.90;;;;;;;3.75;79.65;98120.15;25169;1313;3071314;-74
2022/04/12 09:19:46;;;;;;;2.90;1.30;;;;;;;4.21;78.33;98115.73;25156;1315;3049405;-77
2022/04/12 09:22:21;;;;;;;1.10;0.70;;;;;;;4.53;76.72;98125.36;25168;1313;3051261;-77
2022/04/12 09:24:57;;;;;;;2.40;1.30;;;;;;;4.28;76.77;98133.38;25171;1313;3053002;-81
2022/04/12 09:27:34;;;;;;;1.70;1.10;;;;;;;4.15;77.74;98116.27;25234;1313;3026990;-79
2022/04/12 09:30:34;;;;;;;2.10;1.30;;;;;;;3.86;78.12;98133.98;25149;1313;3049915;-80
2022/04/12 09:33:04;;;;;;;2.20;0.60;;;;;;;3.80;78.25;98137.37;25233;1313;3052999;-81
2022/04/12 09:35:33;;;;;;;1.60;0.70;;;;;;;4.10;77.59;98140.77;25193;1313;3026828;-80
2022/04/12 09:38:02;;;;;;;0.90;0.60;;;;;;;4.63;76.21;98119.92;25177;1315;3049150;-76
2022/04/12 09:40:32;;;;;;;2.70;1.10;;;;;;;4.51;75.68;98124.94;25188;1313;3029414;-80
2022/04/12 09:43:05;;;;;;;2.80;1.40;;;;;;;4.26;76.27;98137.63;25203;1313;3056021;-82
2022/04/12 09:45:34;;;;;;;1.70;1.00;;;;;;;4.16;76.36;98138.91;25255;1316;3052642;-79
2022/04/12 09:48:06;;;;;;;3.10;0.90;;;;;;;3.96;77.23;98138.25;25157;1313;3027008;-77
2022/04/12 09:50:35;;;;;;;2.00;0.90;;;;;;;3.94;77.99;98163.98;25165;1313;3056831;-81
2022/04/12 09:53:07;;;;;;;1.50;1.00;;;;;;;4.71;76.79;98164.21;25202;1313;3027354;-76
2022/04/12 09:55:38;;;;;;;1.90;1.10;;;;;;;5.14;74.51;98172.16;25274;1309;3030403;-81
2022/04/12 09:58:17;;;;;;;1.80;0.90;;;;;;;5.17;73.68;98189.33;25256;1309;3026811;-76
2022/04/12 10:00:47;;;;;;;1.90;0.90;;;;;;;4.67;74.41;98194.45;25246;1309;3071059;-81
2022/04/12 10:03:19;;;;;;;0.40;0.40;;;;;;;4.37;75.56;98196.85;25265;1309;3026500;-80
2022/04/12 10:05:49;;;;;;;1.10;0.70;;;;;;;4.05;76.50;98208.29;25247;1310;3028152;-77
2022/04/12 10:08:18;;;;;;;2.30;0.70;;;;;;;3.94;77.41;98199.18;25251;1309;3026579;-77
2022/04/12 10:10:47;;;;;;;1.00;0.50;;;;;;;3.96;77.74;98208.23;25249;1309;3051369;-79
2022/04/12 10:13:16;;;;;;;0.40;0.20;;;;;;;4.49;75.90;98195.45;25301;1309;3028614;-80
2022/04/12 10:15:46;;;;;;;0.40;0.30;;;;;;;5.02;73.83;98213.83;25303;1309;3071767;-80
2022/04/12 10:18:16;;;;;;;0.80;0.40;;;;;;;4.79;73.30;98207.67;25256;1309;3027438;-79
2022/04/12 10:20:46;;;;;;;1.00;0.40;;;;;;;4.52;74.03;98221.69;25350;1309;3026329;-77
2022/04/12 10:23:23;;;;;;;2.20;0.60;;;;;;;4.13;75.43;98217.89;25271;1309;3029044;-78
2022/04/12 10:26:12;;;;;;;1.90;0.70;;;;;;;4.04;76.15;98221.87;25359;1310;3060585;-78
2022/04/12 10:29:04;;;;;;;0.70;0.50;;;;;;;3.98;76.47;98234.13;25312;1309;3051616;-78
2022/04/12 10:31:35;;;;;;;2.20;0.40;;;;;;;4.34;76.36;98230.09;25401;1309;3053071;-80
2022/04/12 10:34:11;;;;;;;0.80;0.50;;;;;;;4.55;74.64;98233.98;25374;1309;3026243;-83
2022/04/12 10:36:54;;;;;;;1.10;0.70;;;;;;;4.62;74.55;98234.97;25433;1310;3068887;-83
2022/04/12 10:39:29;;;;;;;1.00;0.60;;;;;;;4.64;73.95;98233.35;25477;1309;3026885;-81
2022/04/12 10:42:26;;;;;;;0.70;0.40;;;;;;;4.36;74.47;98237.82;25360;1309;3052863;-82
2022/04/12 10:44:57;;;;;;;2.00;0.80;;;;;;;4.31;74.66;98241.04;25353;1309;3051317;-82
2022/04/12 10:47:31;;;;;;;2.20;0.90;;;;;;;4.03;76.21;98251.54;25556;1309;3026503;-78
2022/04/12 10:50:02;;;;;;;2.50;1.00;;;;;;;4.06;76.49;98260.56;25603;1309;3053838;-78
2022/04/12 10:52:33;;;;;;;2.50;1.30;;;;;;;4.64;75.09;98247.86;25516;1309;3026299;-81
2022/04/12 10:55:05;;;;;;;7.10;1.60;;;;;;;4.84;73.89;98251.09;25342;1309;3026414;-80
2022/04/12 10:57:36;;;;;;;3.70;1.70;;;;;;;4.80;73.76;98244.90;25444;1309;3026867;-79
2022/04/12 11:00:09;;;;;;;3.40;1.40;;;;;;;4.60;74.24;98263.17;25534;1309;3026565;-81
2022/04/12 11:02:39;;;;;;;3.80;1.70;;;;;;;4.37;75.01;98261.33;25502;1309;3028780;-80
2022/04/12 11:05:40;;;;;;;3.50;1.60;;;;;;;4.18;75.53;98275.00;25433;1309;3027152;-78
2022/04/12 11:08:15;;;;;;;3.90;1.30;;;;;;;4.13;75.72;98257.25;25436;1309;3050148;-78
2022/04/12 11:10:51;;;;;;;2.50;1.00;;;;;;;4.06;76.22;98266.79;25436;1310;3052653;-78
2022/04/12 11:13:22;;;;;;;1.70;0.90;;;;;;;4.60;73.99;98266.99;25438;1309;3051889;-81
2022/04/12 11:16:12;;;;;;;4.10;1.40;;;;;;;4.85;73.04;98256.98;25589;1309;3059149;-77
2022/04/12 11:18:57;;;;;;;3.20;1.30;;;;;;;4.79;72.90;98251.03;25554;1309;3049771;-77
2022/04/12 11:21:49;;;;;;;4.00;1.40;;;;;;;4.45;73.52;98257.59;25551;1309;3052059;-79
2022/04/12 11:24:21;;;;;;;6.10;1.70;;;;;;;4.19;74.76;98252.77;25463;1309;3051749;-75
2022/04/12 11:27:05;;;;;;;2.60;1.00;;;;;;;4.11;75.14;98256.67;25804;1309;3068478;-76
2022/04/12 11:29:34;;;;;;;2.20;0.80;;;;;;;4.05;75.39;98254.36;26035;1309;3049669;-79
2022/04/12 11:32:04;;;;;;;2.60;1.00;;;;;;;4.35;75.34;98261.27;26079;1309;3026629;-71
2022/04/12 11:34:35;;;;;;;1.30;1.10;;;;;;;4.80;73.19;98253.41;25726;1309;3027369;-77
2022/04/12 11:37:12;;;;;;;3.10;1.20;;;;;;;5.04;72.08;98244.94;25803;1309;3028437;-80
2022/04/12 11:39:43;;;;;;;3.80;1.60;;;;;;;4.96;72.30;98235.52;25431;1309;3048741;-81
2022/04/12 11:42:14;;;;;;;1.20;0.60;;;;;;;4.91;72.57;98242.04;25350;1309;3027386;-77
2022/04/12 11:44:50;;;;;;;3.80;1.20;;;;;;;4.55;73.19;98250.65;25306;1309;3027510;-80
2022/04/12 11:47:20;;;;;;;4.10;1.60;;;;;;;4.36;74.17;98259.79;25415;1310;3069744;-78
2022/04/12 11:49:51;;;;;;;4.00;1.60;;;;;;;4.23;74.43;98268.86;25405;1309;3026793;-75